Time;durP1;ratioP1;P1;durP2;ratioP2;P2;SDS_P1;SDS_P2;PMS_P1;PMS_P2;Temp;Humidity;BMP_temperature;BMP_pressure;BME280_temperature;BME280_humidity;BME280_pressure;Samples;Min_cycle;Max_cycle;Signal;HPM_P1;HPM_P2
2023/01/22 00:00:25;;;;;;;11.17;9.70;;;2.90;99.90;;;;;;6249707;28;20963;-67
2023/01/22 00:03:28;;;;;;;15.00;10.60;;;2.80;99.90;;;;;;6249753;28;20471;-67
2023/01/22 00:06:31;;;;;;;13.03;10.90;;;2.80;99.90;;;;;;6249655;28;20558;-67
2023/01/22 00:09:34;;;;;;;13.73;10.10;;;2.70;99.90;;;;;;6249818;28;20466;-67
2023/01/22 00:12:39;;;;;;;14.00;11.60;;;2.60;99.90;;;;;;6249936;28;20439;-67
2023/01/22 00:15:42;;;;;;;12.60;10.07;;;2.70;99.90;;;;;;6249166;28;20738;-66
2023/01/22 00:18:45;;;;;;;16.50;10.47;;;2.70;99.90;;;;;;6249357;28;20470;-66
2023/01/22 00:21:49;;;;;;;12.30;9.80;;;2.70;99.90;;;;;;6249094;28;20486;-66
2023/01/22 00:24:52;;;;;;;13.13;10.33;;;2.60;99.90;;;;;;6249788;28;20473;-66
2023/01/22 00:27:57;;;;;;;12.00;10.13;;;2.60;99.90;;;;;;6249717;28;20459;-66
2023/01/22 00:31:01;;;;;;;11.30;10.17;;;2.50;99.90;;;;;;6249959;28;20471;-66
2023/01/22 00:34:05;;;;;;;12.97;10.03;;;2.50;99.90;;;;;;6249184;28;20918;-66
2023/01/22 00:37:08;;;;;;;12.90;10.17;;;2.40;99.90;;;;;;6249492;28;20575;-66
2023/01/22 00:40:12;;;;;;;10.70;9.60;;;2.40;99.90;;;;;;6249071;28;20966;-66
2023/01/22 00:43:17;;;;;;;11.30;8.73;;;2.40;99.90;;;;;;6249077;28;20475;-66
2023/01/22 00:46:20;;;;;;;12.67;9.63;;;2.40;99.90;;;;;;6249193;28;20819;-66
2023/01/22 00:49:23;;;;;;;12.07;9.60;;;2.50;99.90;;;;;;6249260;28;20556;-66
2023/01/22 00:52:26;;;;;;;10.40;9.30;;;2.50;99.90;;;;;;6251347;28;20478;-67
2023/01/22 00:55:30;;;;;;;11.93;9.47;;;2.50;99.90;;;;;;6253803;28;20489;-67
2023/01/22 00:58:35;;;;;;;11.57;10.33;;;2.40;99.90;;;;;;6253514;28;20557;-66
2023/01/22 01:01:39;;;;;;;12.50;10.90;;;2.50;99.90;;;;;;6253510;28;20475;-67
2023/01/22 01:04:42;;;;;;;12.00;9.83;;;2.50;99.90;;;;;;6253848;28;20477;-66
2023/01/22 01:07:45;;;;;;;16.97;11.63;;;2.50;99.90;;;;;;6253559;28;20503;-66
2023/01/22 01:10:49;;;;;;;12.37;11.17;;;2.60;99.90;;;;;;6253844;28;20478;-67
2023/01/22 01:13:53;;;;;;;12.57;9.70;;;2.60;99.90;;;;;;6252997;28;20471;-67
2023/01/22 01:16:56;;;;;;;12.50;10.20;;;2.60;99.90;;;;;;6253423;28;20471;-68
2023/01/22 01:20:01;;;;;;;11.47;9.57;;;2.60;99.90;;;;;;6253114;28;20486;-67
2023/01/22 01:23:04;;;;;;;12.07;10.47;;;2.60;99.90;;;;;;6253091;28;20481;-67
2023/01/22 01:26:08;;;;;;;16.43;10.33;;;2.50;99.90;;;;;;6253064;28;20478;-67
2023/01/22 01:29:14;;;;;;;14.80;11.47;;;2.50;99.90;;;;;;6252762;28;20495;-67
2023/01/22 01:32:17;;;;;;;15.83;10.47;;;2.60;99.90;;;;;;6253153;28;20482;-67
2023/01/22 01:35:20;;;;;;;12.10;8.63;;;2.70;99.90;;;;;;6252680;28;20471;-66
2023/01/22 01:38:26;;;;;;;9.90;8.90;;;2.60;99.90;;;;;;6252739;28;20490;-66
2023/01/22 01:41:29;;;;;;;9.97;8.37;;;2.70;99.90;;;;;;6252500;28;20487;-66
2023/01/22 01:44:34;;;;;;;10.70;9.07;;;2.70;99.90;;;;;;6243462;28;20466;-65
2023/01/22 01:47:37;;;;;;;9.90;8.80;;;2.60;99.90;;;;;;6252390;28;20486;-65
2023/01/22 01:50:42;;;;;;;11.13;9.50;;;2.60;99.90;;;;;;6252532;28;20471;-65
2023/01/22 01:53:47;;;;;;;10.27;8.43;;;2.60;99.90;;;;;;6252216;28;20471;-65
2023/01/22 01:56:54;;;;;;;11.27;9.90;;;2.70;99.90;;;;;;6252200;28;20474;-65
2023/01/22 02:00:01;;;;;;;9.63;8.63;;;2.70;99.90;;;;;;6251875;28;20482;-66
2023/01/22 02:03:04;;;;;;;11.33;9.37;;;2.70;99.90;;;;;;6251005;28;20475;-65
2023/01/22 02:06:10;;;;;;;11.13;9.93;;;2.70;99.90;;;;;;6251952;28;20482;-65
2023/01/22 02:09:14;;;;;;;8.40;7.60;;;2.70;99.90;;;;;;6251732;28;20985;-65
2023/01/22 02:12:17;;;;;;;8.90;8.00;;;2.70;99.90;;;;;;6251966;28;20486;-65
2023/01/22 02:15:22;;;;;;;8.63;6.73;;;2.70;99.90;;;;;;6251710;28;20483;-65
2023/01/22 02:18:25;;;;;;;9.27;8.03;;;2.70;99.90;;;;;;6251700;28;20488;-65
2023/01/22 02:21:39;;;;;;;9.17;8.37;;;2.70;99.90;;;;;;6251338;28;20540;-65
2023/01/22 02:24:42;;;;;;;9.13;7.43;;;2.70;99.90;;;;;;6251489;28;20915;-65
2023/01/22 02:27:45;;;;;;;9.93;9.00;;;2.70;99.90;;;;;;6251602;28;20467;-65
2023/01/22 02:30:49;;;;;;;8.50;7.70;;;2.70;99.90;;;;;;6251472;28;20440;-65
2023/01/22 02:33:53;;;;;;;8.70;7.70;;;2.70;99.90;;;;;;6251616;28;20443;-65
2023/01/22 02:36:58;;;;;;;10.13;7.67;;;2.70;99.90;;;;;;6251547;28;20493;-65
2023/01/22 02:40:01;;;;;;;10.50;7.63;;;2.70;99.90;;;;;;6251210;28;20486;-65
2023/01/22 02:43:04;;;;;;;11.80;8.67;;;2.80;99.90;;;;;;6251047;28;20471;-65
2023/01/22 02:46:07;;;;;;;9.93;7.00;;;2.90;99.90;;;;;;6250957;28;20840;-65
2023/01/22 02:49:10;;;;;;;7.77;6.50;;;2.90;99.90;;;;;;6250925;28;20475;-66
2023/01/22 02:52:15;;;;;;;8.77;6.90;;;3.00;99.90;;;;;;6251283;28;20468;-65
2023/01/22 02:55:18;;;;;;;7.80;7.00;;;3.00;99.90;;;;;;6250991;28;20471;-65
2023/01/22 02:58:21;;;;;;;9.00;6.90;;;3.00;99.90;;;;;;6250813;28;20482;-66
2023/01/22 03:01:25;;;;;;;11.87;8.40;;;3.10;99.90;;;;;;6251211;28;20471;-65
2023/01/22 03:04:28;;;;;;;7.40;6.50;;;3.10;99.90;;;;;;6251121;28;20463;-65
2023/01/22 03:07:41;;;;;;;10.57;7.13;;;3.10;99.90;;;;;;6250477;28;20794;-65
2023/01/22 03:10:45;;;;;;;10.63;7.50;;;3.10;99.90;;;;;;6250870;28;20802;-65
2023/01/22 03:23:53;;;;;;;8.43;7.50;;;2.90;99.90;;;;;;6257284;28;20475;-66
2023/01/22 03:26:56;;;;;;;9.50;8.50;;;2.70;99.90;;;;;;6267324;28;20803;-65
2023/01/22 03:30:00;;;;;;;11.00;9.10;;;2.70;99.90;;;;;;6255118;28;20792;-66
2023/01/22 03:33:03;;;;;;;9.63;8.60;;;2.60;99.90;;;;;;6262454;28;20530;-66
2023/01/22 03:36:08;;;;;;;12.17;8.20;;;2.60;99.90;;;;;;6262614;28;20472;-65
2023/01/22 03:39:14;;;;;;;9.07;8.13;;;2.50;99.90;;;;;;6262280;28;20967;-65
2023/01/22 03:42:17;;;;;;;10.13;9.03;;;2.30;99.90;;;;;;6259449;28;20811;-65
2023/01/22 03:45:20;;;;;;;10.80;9.67;;;2.30;99.90;;;;;;6261428;28;20481;-65
2023/01/22 03:48:23;;;;;;;11.73;9.43;;;2.30;99.90;;;;;;6263606;28;20482;-65
2023/01/22 03:51:26;;;;;;;8.47;7.20;;;2.20;99.90;;;;;;6259119;28;20467;-65
2023/01/22 03:54:31;;;;;;;11.17;7.90;;;2.20;99.90;;;;;;6260757;28;20471;-64
2023/01/22 03:57:34;;;;;;;8.13;6.17;;;2.10;99.90;;;;;;6260819;28;20474;-65
2023/01/22 04:00:37;;;;;;;7.10;5.83;;;2.20;99.90;;;;;;6252597;28;20509;-64
2023/01/22 04:03:41;;;;;;;5.97;5.20;;;2.30;99.90;;;;;;6249549;28;20836;-64
2023/01/22 04:06:44;;;;;;;4.60;3.80;;;2.40;99.90;;;;;;6249786;28;20454;-64
2023/01/22 04:09:48;;;;;;;4.33;3.93;;;2.50;99.90;;;;;;6249604;28;20536;-64
2023/01/22 04:12:51;;;;;;;2.70;2.50;;;2.60;99.70;;;;;;6249968;28;20450;-64
2023/01/22 04:15:55;;;;;;;1.67;1.57;;;2.70;98.50;;;;;;6250137;28;25076;-64
2023/01/22 04:18:58;;;;;;;2.90;2.10;;;2.80;97.10;;;;;;6249804;28;20537;-64
2023/01/22 04:22:01;;;;;;;2.20;2.00;;;2.90;96.10;;;;;;6249572;28;20474;-64
2023/01/22 04:25:07;;;;;;;1.50;1.40;;;2.90;95.70;;;;;;6249973;28;20470;-64
2023/01/22 04:28:10;;;;;;;1.57;1.47;;;2.90;94.50;;;;;;6253106;28;20958;-64
2023/01/22 04:31:13;;;;;;;1.87;1.67;;;3.00;94.00;;;;;;6253036;28;20982;-64
2023/01/22 04:34:17;;;;;;;2.00;1.90;;;3.10;94.00;;;;;;6252822;28;20474;-64
2023/01/22 04:37:20;;;;;;;1.70;1.60;;;3.10;94.00;;;;;;6252420;28;20490;-64
2023/01/22 04:40:25;;;;;;;1.93;1.73;;;3.20;93.90;;;;;;6252726;28;20547;-64
2023/01/22 04:43:28;;;;;;;2.47;2.10;;;3.20;93.90;;;;;;6251881;28;20475;-66
2023/01/22 04:46:31;;;;;;;4.33;2.63;;;3.40;94.20;;;;;;6253716;28;20967;-64
2023/01/22 04:49:34;;;;;;;3.00;2.77;;;3.50;94.30;;;;;;6253922;28;20471;-64
2023/01/22 04:52:37;;;;;;;2.93;2.73;;;3.50;94.50;;;;;;6254186;28;20537;-64
2023/01/22 04:55:42;;;;;;;4.00;3.70;;;3.60;94.50;;;;;;6245051;28;20478;-65
2023/01/22 04:58:45;;;;;;;4.77;3.53;;;3.70;94.70;;;;;;6253448;28;20480;-64
2023/01/22 05:01:49;;;;;;;4.37;3.87;;;3.70;94.70;;;;;;6253644;28;20479;-66
2023/01/22 05:04:52;;;;;;;5.07;4.53;;;3.70;95.20;;;;;;6253623;28;20485;-65
2023/01/22 05:07:56;;;;;;;6.20;5.40;;;3.80;95.90;;;;;;6253301;28;20482;-66
2023/01/22 05:11:02;;;;;;;6.70;6.00;;;3.70;96.40;;;;;;6253467;28;20471;-64
2023/01/22 05:14:05;;;;;;;6.80;6.10;;;3.70;96.60;;;;;;6253509;28;20477;-65
2023/01/22 05:17:10;;;;;;;8.20;6.53;;;3.70;97.10;;;;;;6253151;28;20540;-65
2023/01/22 05:20:13;;;;;;;8.67;7.03;;;3.70;97.60;;;;;;6253607;28;20479;-64
2023/01/22 05:23:17;;;;;;;7.93;6.90;;;3.70;98.00;;;;;;6253140;28;20861;-66
2023/01/22 05:26:21;;;;;;;7.97;7.10;;;3.70;98.20;;;;;;6253258;28;21011;-64
2023/01/22 05:29:26;;;;;;;7.17;6.47;;;3.70;98.30;;;;;;6252856;28;20478;-65
2023/01/22 05:32:29;;;;;;;8.90;7.23;;;3.60;98.30;;;;;;6253346;28;20486;-66
2023/01/22 05:35:32;;;;;;;6.70;6.10;;;3.60;98.50;;;;;;6252792;28;20471;-65
2023/01/22 05:38:35;;;;;;;9.83;6.93;;;3.60;98.60;;;;;;6252403;28;20471;-66
2023/01/22 05:41:40;;;;;;;7.33;6.73;;;3.60;98.50;;;;;;6252861;28;20479;-65
2023/01/22 05:44:43;;;;;;;6.90;5.13;;;3.50;98.50;;;;;;6252427;28;20807;-67
2023/01/22 05:47:52;;;;;;;5.73;5.13;;;3.50;98.20;;;;;;6252229;28;20482;-66
2023/01/22 05:50:55;;;;;;;4.20;3.90;;;3.50;98.10;;;;;;6252581;28;20467;-65
2023/01/22 05:53:58;;;;;;;2.43;2.03;;;3.50;97.30;;;;;;6252851;28;20787;-65
2023/01/22 05:57:03;;;;;;;2.23;2.03;;;3.50;95.90;;;;;;6253629;28;20484;-65
2023/01/22 06:00:08;;;;;;;2.20;1.70;;;3.40;95.60;;;;;;6248151;28;20837;-66
2023/01/22 06:03:11;;;;;;;1.60;1.50;;;3.40;95.20;;;;;;6252833;28;20483;-66
2023/01/22 06:06:15;;;;;;;1.73;1.63;;;3.30;95.10;;;;;;6253464;28;20467;-65
2023/01/22 06:09:18;;;;;;;1.80;1.70;;;3.30;95.20;;;;;;6264506;28;20989;-65
2023/01/22 06:12:23;;;;;;;1.70;1.60;;;3.30;95.00;;;;;;6264365;28;20962;-65
2023/01/22 06:15:26;;;;;;;1.90;1.80;;;3.30;95.10;;;;;;6269042;28;20470;-64
2023/01/22 06:18:29;;;;;;;1.70;1.60;;;3.30;95.00;;;;;;6261917;28;20541;-65
2023/01/22 06:21:33;;;;;;;2.27;2.07;;;3.30;95.10;;;;;;6259677;28;20486;-65
2023/01/22 06:24:36;;;;;;;3.00;2.70;;;3.30;95.20;;;;;;6262017;28;20479;-65
2023/01/22 06:27:40;;;;;;;3.30;3.00;;;3.40;95.60;;;;;;6262396;28;20461;-66
2023/01/22 06:30:44;;;;;;;3.77;3.47;;;3.40;95.90;;;;;;6273197;28;20453;-65
2023/01/22 06:33:47;;;;;;;3.37;3.07;;;3.40;96.10;;;;;;6276126;28;20434;-65
2023/01/22 06:36:50;;;;;;;3.40;3.10;;;3.50;96.30;;;;;;6276574;28;20453;-65
2023/01/22 06:39:53;;;;;;;3.17;2.97;;;3.50;96.20;;;;;;6276198;28;20473;-65
2023/01/22 06:42:58;;;;;;;4.40;3.50;;;3.50;96.20;;;;;;6276355;28;20493;-65
2023/01/22 06:46:03;;;;;;;5.90;4.13;;;3.60;96.30;;;;;;6276494;28;20470;-66
2023/01/22 06:49:09;;;;;;;5.83;4.07;;;3.60;96.30;;;;;;6275152;28;20471;-65
2023/01/22 06:52:12;;;;;;;6.20;5.20;;;3.70;96.50;;;;;;6276467;28;20482;-66
2023/01/22 06:55:15;;;;;;;8.23;6.13;;;3.70;97.10;;;;;;6275682;28;20954;-66
2023/01/22 06:58:20;;;;;;;6.90;6.23;;;3.70;97.20;;;;;;6275612;28;20470;-66
2023/01/22 07:01:24;;;;;;;7.70;6.23;;;3.80;97.60;;;;;;6270954;28;20486;-65
2023/01/22 07:04:28;;;;;;;7.40;6.60;;;3.80;97.90;;;;;;6275847;28;20475;-66
2023/01/22 07:07:31;;;;;;;6.97;6.27;;;3.80;97.90;;;;;;6275123;28;20474;-65
2023/01/22 07:10:34;;;;;;;6.60;4.97;;;3.80;98.10;;;;;;6255754;28;20482;-65
2023/01/22 07:13:39;;;;;;;6.50;5.80;;;3.70;97.60;;;;;;6250533;28;21042;-65
2023/01/22 07:16:42;;;;;;;4.17;3.77;;;3.70;97.60;;;;;;6250635;28;20800;-66
2023/01/22 07:19:45;;;;;;;3.67;3.40;;;3.70;97.50;;;;;;6250199;28;20490;-66
2023/01/22 07:22:48;;;;;;;3.33;2.90;;;3.70;97.10;;;;;;6250393;28;20478;-67
2023/01/22 07:25:51;;;;;;;6.80;2.90;;;3.60;96.70;;;;;;6249964;28;20951;-66
2023/01/22 07:28:56;;;;;;;2.97;2.20;;;3.70;96.80;;;;;;6250331;28;20483;-65
2023/01/22 07:31:59;;;;;;;2.50;2.30;;;3.70;96.60;;;;;;6250603;28;20471;-65
2023/01/22 07:35:02;;;;;;;2.07;1.90;;;3.60;96.20;;;;;;6250123;28;20778;-65
2023/01/22 07:38:06;;;;;;;2.10;2.00;;;3.50;96.20;;;;;;6250418;28;20471;-65
2023/01/22 07:41:10;;;;;;;1.90;1.77;;;3.50;96.40;;;;;;6249997;28;20472;-65
2023/01/22 07:44:29;;;;;;;2.47;2.30;;;3.50;96.50;;;;;;6249974;28;20502;-65
2023/01/22 07:47:32;;;;;;;2.30;2.10;;;3.50;96.70;;;;;;6249490;28;20989;-65
2023/01/22 07:50:35;;;;;;;2.30;2.10;;;3.50;96.80;;;;;;6249924;28;20537;-65
2023/01/22 07:53:39;;;;;;;2.20;1.70;;;3.50;96.90;;;;;;6249490;28;20482;-65
2023/01/22 07:56:42;;;;;;;2.13;1.93;;;3.50;97.00;;;;;;6250053;28;20550;-65
2023/01/22 07:59:46;;;;;;;1.93;1.80;;;3.50;96.90;;;;;;6249398;28;20486;-65
2023/01/22 08:02:50;;;;;;;3.40;1.77;;;3.60;96.90;;;;;;6249767;28;20966;-65
2023/01/22 08:05:53;;;;;;;2.30;2.10;;;3.50;97.00;;;;;;6249493;28;20971;-66
2023/01/22 08:08:57;;;;;;;2.20;2.00;;;3.50;97.40;;;;;;6249507;28;20475;-65
2023/01/22 08:12:00;;;;;;;3.70;3.40;;;3.50;97.90;;;;;;6249716;28;20475;-66
2023/01/22 08:15:06;;;;;;;2.63;2.43;;;3.60;98.20;;;;;;6249480;28;20846;-65
2023/01/22 08:18:10;;;;;;;2.77;2.57;;;3.60;98.40;;;;;;6250105;28;20483;-65
2023/01/22 08:21:13;;;;;;;2.10;2.00;;;3.70;98.40;;;;;;6250075;28;20479;-65
2023/01/22 08:24:16;;;;;;;2.53;1.87;;;3.70;98.30;;;;;;6249462;28;20471;-64
2023/01/22 08:27:20;;;;;;;2.83;2.63;;;3.60;98.00;;;;;;6249572;28;20481;-65
2023/01/22 08:30:24;;;;;;;3.33;3.03;;;3.60;98.60;;;;;;6249498;28;20529;-65
2023/01/22 08:33:28;;;;;;;2.93;2.70;;;3.50;99.20;;;;;;6249606;28;20985;-65
2023/01/22 08:36:31;;;;;;;3.50;2.60;;;3.50;99.60;;;;;;6249320;28;20529;-65
2023/01/22 08:39:35;;;;;;;3.10;2.40;;;3.50;99.10;;;;;;6250389;28;20487;-65
2023/01/22 08:42:38;;;;;;;2.57;2.30;;;3.50;99.50;;;;;;6249919;28;20466;-66
2023/01/22 08:45:43;;;;;;;2.33;1.97;;;3.40;99.70;;;;;;6249946;28;20958;-66
2023/01/22 08:48:47;;;;;;;2.40;2.20;;;3.40;99.90;;;;;;6249209;28;20463;-66
2023/01/22 08:51:50;;;;;;;2.43;2.20;;;3.30;99.90;;;;;;6249067;28;21008;-66
2023/01/22 08:54:54;;;;;;;2.97;2.40;;;3.30;99.90;;;;;;6249642;28;20444;-67
2023/01/22 08:57:58;;;;;;;2.43;2.23;;;3.40;99.90;;;;;;6248795;28;20477;-66
2023/01/22 09:01:03;;;;;;;2.20;2.10;;;3.40;99.90;;;;;;6249669;28;20459;-66
2023/01/22 09:04:06;;;;;;;1.83;1.73;;;3.40;99.90;;;;;;6249399;28;20475;-66
2023/01/22 09:07:10;;;;;;;2.90;2.70;;;3.40;99.90;;;;;;6249382;28;20493;-66
2023/01/22 09:10:13;;;;;;;2.77;2.57;;;3.30;99.90;;;;;;6240143;28;20482;-67
2023/01/22 09:13:16;;;;;;;3.43;2.57;;;3.30;99.90;;;;;;6250916;28;20477;-66
2023/01/22 09:16:20;;;;;;;2.10;2.00;;;3.30;99.90;;;;;;6252135;28;20981;-66
2023/01/22 09:19:24;;;;;;;2.00;1.90;;;3.30;99.90;;;;;;6251775;28;20479;-66
2023/01/22 09:22:27;;;;;;;4.90;2.17;;;3.40;99.90;;;;;;6251815;28;20982;-67
2023/01/22 09:25:30;;;;;;;2.80;2.60;;;3.40;99.90;;;;;;6251625;28;20785;-67
2023/01/22 09:28:34;;;;;;;2.63;2.43;;;3.40;99.90;;;;;;6252238;28;20509;-67
2023/01/22 09:31:39;;;;;;;2.40;2.20;;;3.40;99.90;;;;;;6252703;28;20994;-65
2023/01/22 09:34:42;;;;;;;2.60;2.40;;;3.40;99.90;;;;;;6253392;28;20475;-66
2023/01/22 09:37:46;;;;;;;2.83;2.53;;;3.50;99.90;;;;;;6252999;28;20486;-66
2023/01/22 09:40:53;;;;;;;2.27;2.10;;;3.50;99.90;;;;;;6252795;28;20485;-67
2023/01/22 09:44:01;;;;;;;2.87;2.47;;;3.50;99.90;;;;;;6253061;28;20838;-66
2023/01/22 09:47:11;;;;;;;3.10;2.80;;;3.50;99.90;;;;;;6252736;28;20475;-66
2023/01/22 09:50:19;;;;;;;2.97;2.63;;;3.60;99.90;;;;;;6252964;28;20809;-66
2023/01/22 09:53:23;;;;;;;3.60;3.30;;;3.60;99.90;;;;;;6252812;28;20540;-67
2023/01/22 09:56:32;;;;;;;2.90;2.70;;;3.60;99.90;;;;;;6252873;28;20467;-65
2023/01/22 09:59:41;;;;;;;3.00;2.80;;;3.70;99.90;;;;;;6252139;28;20483;-66
2023/01/22 10:02:48;;;;;;;3.60;3.30;;;3.60;99.90;;;;;;6252411;28;20475;-66
2023/01/22 10:05:55;;;;;;;3.23;2.93;;;3.60;99.90;;;;;;6252547;28;20486;-66
2023/01/22 10:09:09;;;;;;;3.40;3.10;;;3.50;99.90;;;;;;6252484;28;20486;-67
2023/01/22 10:12:13;;;;;;;4.00;3.30;;;3.60;99.90;;;;;;6252158;28;20475;-66
2023/01/22 10:15:20;;;;;;;3.73;3.43;;;3.50;99.90;;;;;;6247529;28;20791;-67
2023/01/22 10:18:31;;;;;;;6.10;3.83;;;3.50;99.90;;;;;;6251997;28;20482;-66
2023/01/22 10:21:41;;;;;;;2.90;2.70;;;3.70;99.90;;;;;;6252172;28;20482;-65
2023/01/22 10:24:44;;;;;;;4.33;3.50;;;3.70;99.90;;;;;;6260093;28;20499;-65
2023/01/22 10:27:57;;;;;;;9.10;8.43;;;3.60;99.90;;;;;;6259271;28;20459;-65
2023/01/22 10:31:01;;;;;;;4.03;3.67;;;3.60;99.90;;;;;;6260745;28;20466;-65
2023/01/22 10:34:13;;;;;;;3.83;3.50;;;3.60;99.90;;;;;;6265314;28;20551;-65
2023/01/22 10:37:18;;;;;;;5.00;4.40;;;3.70;99.90;;;;;;6263054;28;20466;-65
2023/01/22 10:40:24;;;;;;;3.67;3.33;;;3.70;99.90;;;;;;6269071;28;20466;-65
2023/01/22 10:43:32;;;;;;;3.50;3.20;;;3.70;99.90;;;;;;6276001;28;20467;-65
2023/01/22 10:46:35;;;;;;;4.40;4.10;;;3.80;99.90;;;;;;6260163;28;20490;-65
2023/01/22 10:49:40;;;;;;;2.87;2.67;;;3.90;99.90;;;;;;6251251;28;20490;-66
2023/01/22 10:52:47;;;;;;;4.27;3.07;;;4.00;99.90;;;;;;6262149;28;20471;-66
2023/01/22 10:55:53;;;;;;;2.43;2.23;;;4.00;99.90;;;;;;6256548;28;20481;-66
2023/01/22 10:58:59;;;;;;;3.77;3.30;;;4.00;99.90;;;;;;6266200;28;21008;-65
2023/01/22 11:02:15;;;;;;;4.30;2.87;;;4.00;99.90;;;;;;6262222;28;20470;-66
2023/01/22 11:05:22;;;;;;;3.70;3.40;;;4.10;99.90;;;;;;6258974;28;20468;-66
2023/01/22 11:08:29;;;;;;;18.43;15.30;;;4.10;99.90;;;;;;6262170;28;20467;-65
2023/01/22 11:11:38;;;;;;;10.47;9.47;;;4.20;99.90;;;;;;6263789;28;20923;-64
2023/01/22 11:14:42;;;;;;;7.70;7.10;;;4.30;99.90;;;;;;6261715;28;20477;-65
2023/01/22 11:17:50;;;;;;;5.70;5.30;;;4.40;99.90;;;;;;6265524;28;20475;-65
2023/01/22 11:20:57;;;;;;;3.57;3.27;;;4.60;99.90;;;;;;6260827;28;20477;-66
2023/01/22 11:24:06;;;;;;;3.13;2.70;;;4.70;99.90;;;;;;6262193;28;20477;-66
2023/01/22 11:27:38;;;;;;;5.10;3.60;;;4.90;99.90;;;;;;6261255;28;20464;-66
2023/01/22 11:30:54;;;;;;;4.33;3.30;;;5.00;99.90;;;;;;6260628;28;20462;-66
2023/01/22 11:34:19;;;;;;;2.97;2.77;;;5.10;99.90;;;;;;6259822;28;20474;-65
2023/01/22 11:37:37;;;;;;;8.13;7.40;;;5.20;99.90;;;;;;6257198;28;20475;-65
2023/01/22 11:40:59;;;;;;;285.47;233.97;;;5.30;99.90;;;;;;6259403;28;20478;-65
2023/01/22 11:44:22;;;;;;;46.60;41.60;;;5.40;99.90;;;;;;6263577;28;20475;-65
2023/01/22 11:47:45;;;;;;;4.97;4.50;;;5.50;99.90;;;;;;6262310;28;20475;-64
2023/01/22 11:50:54;;;;;;;3.30;3.00;;;5.60;99.90;;;;;;6258030;28;20471;-65
2023/01/22 11:54:22;;;;;;;2.60;2.40;;;5.80;99.90;;;;;;6261707;28;20950;-65
2023/01/22 11:57:30;;;;;;;3.60;3.30;;;5.90;99.90;;;;;;6262230;28;20475;-65
2023/01/22 12:00:44;;;;;;;2.60;2.40;;;6.10;99.90;;;;;;6258833;28;20476;-65
2023/01/22 12:04:23;;;;;;;3.43;3.13;;;6.30;99.90;;;;;;6260532;28;20451;-65
2023/01/22 12:07:51;;;;;;;3.03;2.83;;;6.50;99.90;;;;;;6225238;28;20479;-65
2023/01/22 12:11:16;;;;;;;4.00;2.97;;;6.60;99.90;;;;;;6236341;28;20482;-66
2023/01/22 12:14:54;;;;;;;3.83;2.97;;;6.70;99.90;;;;;;6249668;28;20479;-65
2023/01/22 12:18:13;;;;;;;2.40;2.20;;;6.80;99.90;;;;;;6245093;28;20939;-66
2023/01/22 12:21:26;;;;;;;3.00;2.70;;;6.70;99.90;;;;;;6249552;28;20770;-66
2023/01/22 12:24:35;;;;;;;2.90;2.50;;;6.70;99.90;;;;;;6245074;28;20494;-65
2023/01/22 12:27:46;;;;;;;3.30;2.60;;;6.60;99.90;;;;;;6267550;28;20788;-65
2023/01/22 12:30:56;;;;;;;2.30;2.10;;;6.50;99.90;;;;;;6267568;28;20515;-66
2023/01/22 12:34:02;;;;;;;2.27;2.07;;;6.40;99.90;;;;;;6274136;28;20946;-66
2023/01/22 12:37:07;;;;;;;2.50;2.30;;;6.10;99.90;;;;;;6274342;28;20985;-66
2023/01/22 12:40:31;;;;;;;2.00;1.90;;;5.90;99.90;;;;;;6274040;28;20485;-66
2023/01/22 12:43:43;;;;;;;2.10;1.90;;;5.90;99.90;;;;;;6274400;28;20804;-66
2023/01/22 12:46:58;;;;;;;2.50;2.30;;;5.90;99.90;;;;;;6263523;28;20513;-66
2023/01/22 12:50:02;;;;;;;2.93;2.67;;;5.90;99.90;;;;;;6276599;28;20477;-66
2023/01/22 12:53:23;;;;;;;2.10;2.00;;;6.00;99.90;;;;;;6273425;28;20473;-66
2023/01/22 12:56:31;;;;;;;2.47;2.27;;;6.10;99.90;;;;;;6266906;28;20524;-67
2023/01/22 12:59:46;;;;;;;2.80;2.60;;;6.20;99.90;;;;;;6251109;28;20466;-66
2023/01/22 13:02:50;;;;;;;2.70;2.37;;;6.10;99.90;;;;;;6259811;28;20489;-66
2023/01/22 13:05:54;;;;;;;2.37;2.13;;;6.10;99.90;;;;;;6264661;28;20466;-66
2023/01/22 13:08:57;;;;;;;3.13;2.80;;;6.10;99.90;;;;;;6266651;28;21012;-66
2023/01/22 13:12:08;;;;;;;3.33;2.90;;;6.00;99.90;;;;;;6260694;28;20462;-66
2023/01/22 13:15:21;;;;;;;2.83;2.63;;;6.00;99.90;;;;;;6262295;28;20953;-66
2023/01/22 13:18:28;;;;;;;3.30;3.00;;;6.00;99.90;;;;;;6278014;28;20474;-66
2023/01/22 13:21:34;;;;;;;3.20;2.97;;;6.00;99.90;;;;;;6277894;28;20470;-65
2023/01/22 13:24:48;;;;;;;2.93;2.63;;;5.80;99.90;;;;;;6278212;28;20539;-65
2023/01/22 13:27:52;;;;;;;3.10;2.80;;;5.60;99.90;;;;;;6253998;28;20506;-65
2023/01/22 13:31:00;;;;;;;3.17;2.87;;;5.40;99.90;;;;;;6253725;28;20443;-66
2023/01/22 13:34:07;;;;;;;4.57;4.03;;;5.30;99.90;;;;;;6253741;28;20460;-65
2023/01/22 13:37:21;;;;;;;3.47;2.90;;;5.30;99.90;;;;;;6253840;28;20466;-65
2023/01/22 13:40:27;;;;;;;4.80;4.43;;;5.20;99.90;;;;;;6254201;28;20472;-64
2023/01/22 13:43:38;;;;;;;4.20;3.80;;;5.20;99.90;;;;;;6254331;28;21000;-67
2023/01/22 13:46:43;;;;;;;4.57;4.10;;;5.10;99.90;;;;;;6254865;28;20502;-67
2023/01/22 13:49:47;;;;;;;6.63;4.30;;;5.10;99.90;;;;;;6254600;28;20475;-64
2023/01/22 13:52:52;;;;;;;4.97;4.47;;;5.10;99.90;;;;;;6257548;28;20842;-63
2023/01/22 13:56:01;;;;;;;5.37;4.87;;;4.80;99.90;;;;;;6279897;28;20986;-64
2023/01/22 13:59:15;;;;;;;4.83;4.40;;;4.60;99.90;;;;;;6257201;28;20471;-63
2023/01/22 14:02:23;;;;;;;4.77;4.30;;;4.20;99.90;;;;;;6256010;28;20828;-64
2023/01/22 14:05:29;;;;;;;6.90;6.20;;;4.20;99.90;;;;;;6237795;28;20464;-64
2023/01/22 14:08:45;;;;;;;5.03;4.30;;;4.50;99.90;;;;;;6227803;28;20472;-64
2023/01/22 14:11:58;;;;;;;5.10;4.60;;;4.70;99.90;;;;;;6266597;28;20471;-64
2023/01/22 14:15:14;;;;;;;6.23;4.40;;;4.90;99.90;;;;;;6262166;28;20471;-65
2023/01/22 14:18:21;;;;;;;4.83;4.33;;;5.20;99.90;;;;;;6270912;28;20958;-65
2023/01/22 14:21:25;;;;;;;5.30;4.80;;;5.30;99.90;;;;;;6276688;28;20471;-65
2023/01/22 14:24:29;;;;;;;5.37;4.87;;;5.40;99.90;;;;;;6279448;28;20477;-68
2023/01/22 14:27:41;;;;;;;5.97;5.30;;;5.40;99.90;;;;;;6259417;28;20478;-65
2023/01/22 14:30:45;;;;;;;7.50;6.40;;;5.20;99.90;;;;;;6276190;28;20442;-65
2023/01/22 14:33:51;;;;;;;6.40;5.57;;;5.00;99.90;;;;;;6252269;28;20439;-64
2023/01/22 14:36:55;;;;;;;6.40;5.90;;;4.90;99.90;;;;;;6251766;28;20809;-68
2023/01/22 14:39:59;;;;;;;8.00;6.80;;;4.90;99.90;;;;;;6250976;28;20470;-67
2023/01/22 14:43:04;;;;;;;6.07;5.47;;;4.80;99.90;;;;;;6250152;28;20538;-64
2023/01/22 14:46:08;;;;;;;5.20;4.80;;;4.80;99.90;;;;;;6250907;28;20550;-65
2023/01/22 14:49:13;;;;;;;7.23;5.77;;;4.60;99.90;;;;;;6250112;28;20471;-62
2023/01/22 14:52:17;;;;;;;6.37;5.77;;;4.50;99.90;;;;;;6249277;28;20486;-62
2023/01/22 14:55:22;;;;;;;6.33;5.73;;;4.50;99.90;;;;;;6250114;28;20482;-62
2023/01/22 14:58:27;;;;;;;7.40;6.13;;;4.40;99.90;;;;;;6249568;28;20820;-61
2023/01/22 15:01:30;;;;;;;8.00;6.57;;;4.30;99.90;;;;;;6249979;28;20483;-62
2023/01/22 15:04:39;;;;;;;7.23;5.60;;;4.20;99.90;;;;;;6242150;28;21047;-62
2023/01/22 15:07:43;;;;;;;8.40;7.60;;;4.20;99.90;;;;;;6226231;28;20490;-62
2023/01/22 15:10:49;;;;;;;9.30;6.30;;;4.10;99.90;;;;;;6227094;28;20496;-62
2023/01/22 15:13:54;;;;;;;7.53;6.83;;;4.00;99.90;;;;;;6242678;28;20472;-62
2023/01/22 15:16:58;;;;;;;7.93;7.13;;;3.90;99.90;;;;;;6251338;28;20468;-61
2023/01/22 15:20:04;;;;;;;8.67;7.87;;;3.90;99.90;;;;;;6227190;28;20508;-62
2023/01/22 15:23:08;;;;;;;10.00;7.30;;;3.90;99.90;;;;;;6226683;28;20472;-62
2023/01/22 15:26:27;;;;;;;9.03;7.47;;;3.80;99.90;;;;;;6235953;28;20467;-62
2023/01/22 15:29:31;;;;;;;9.20;6.70;;;3.80;99.90;;;;;;6252113;28;20969;-62
2023/01/22 15:32:36;;;;;;;7.77;6.80;;;3.80;99.90;;;;;;6250750;28;20566;-62
2023/01/22 15:35:41;;;;;;;9.30;8.40;;;3.90;99.90;;;;;;6245683;28;20786;-62
2023/01/22 15:38:44;;;;;;;8.40;7.47;;;4.00;99.90;;;;;;6250437;28;20482;-62
2023/01/22 15:41:49;;;;;;;7.73;7.07;;;4.00;99.90;;;;;;6249601;28;20479;-62
2023/01/22 15:44:54;;;;;;;10.67;9.43;;;4.10;99.90;;;;;;6249375;28;20550;-62
2023/01/22 15:48:00;;;;;;;11.00;8.90;;;4.10;99.90;;;;;;6249764;28;20974;-62
2023/01/22 15:51:11;;;;;;;11.73;10.40;;;4.10;99.90;;;;;;6249646;28;20475;-61
2023/01/22 15:54:16;;;;;;;15.20;10.40;;;4.10;99.90;;;;;;6249815;28;20537;-61
2023/01/22 15:57:20;;;;;;;17.93;15.07;;;4.10;99.90;;;;;;6249734;28;20474;-61
2023/01/22 16:00:26;;;;;;;16.03;14.50;;;4.10;99.90;;;;;;6249132;28;20490;-63
2023/01/22 16:03:32;;;;;;;22.67;14.30;;;4.00;99.90;;;;;;6249331;28;20485;-62
2023/01/22 16:06:38;;;;;;;14.07;12.60;;;4.00;99.90;;;;;;6224856;28;20487;-62
2023/01/22 16:09:42;;;;;;;15.97;13.37;;;4.00;99.90;;;;;;6224344;28;20475;-62
2023/01/22 16:12:48;;;;;;;16.37;11.20;;;4.00;99.90;;;;;;6225145;28;20567;-62
2023/01/22 16:15:57;;;;;;;13.03;11.70;;;4.10;99.90;;;;;;6224732;28;20796;-62
2023/01/22 16:19:12;;;;;;;12.93;11.63;;;4.00;99.90;;;;;;6225109;28;20534;-62
2023/01/22 16:22:17;;;;;;;11.37;8.83;;;4.00;99.90;;;;;;6224816;28;20614;-62
2023/01/22 16:25:21;;;;;;;11.97;10.33;;;4.00;99.90;;;;;;6232849;28;20479;-62